createdAt,value
2023-04-25T00:01:06.816Z,1.60
2023-04-25T00:03:34.019Z,1.50
2023-04-25T00:06:03.705Z,1.60
2023-04-25T00:08:31.532Z,1.10
2023-04-25T00:10:59.013Z,0.90
2023-04-25T00:13:27.089Z,1.40
2023-04-25T00:15:54.390Z,1.60
2023-04-25T00:18:21.344Z,1.70
2023-04-25T00:20:48.160Z,1.80
2023-04-25T00:23:19.205Z,1.80
2023-04-25T00:25:46.614Z,1.50
2023-04-25T00:28:13.990Z,1.30
2023-04-25T00:30:41.436Z,1.20
2023-04-25T00:33:08.804Z,2.10
2023-04-25T00:35:36.049Z,1.70
2023-04-25T00:38:03.467Z,1.60
2023-04-25T00:40:30.249Z,1.40
2023-04-25T00:42:56.922Z,1.20
2023-04-25T00:45:30.439Z,1.50
2023-04-25T00:47:58.023Z,1.30
2023-04-25T00:50:25.652Z,1.10
2023-04-25T00:52:53.034Z,0.90
2023-04-25T00:55:20.822Z,1.20
2023-04-25T00:57:47.969Z,1.00
2023-04-25T01:00:15.851Z,1.20
2023-04-25T01:02:45.954Z,0.90
2023-04-25T01:05:13.247Z,0.60
2023-04-25T01:07:40.205Z,0.70
2023-04-25T01:10:07.493Z,0.80
2023-04-25T01:12:34.864Z,0.70
2023-04-25T01:15:01.853Z,0.80
2023-04-25T01:17:30.313Z,0.80
2023-04-25T01:19:57.191Z,0.50
2023-04-25T01:22:24.363Z,0.40
2023-04-25T01:24:51.875Z,0.50
2023-04-25T01:27:19.242Z,0.40
2023-04-25T01:29:46.863Z,0.50
2023-04-25T01:32:15.154Z,0.40
2023-04-25T01:34:42.055Z,0.40
2023-04-25T01:37:08.768Z,0.40
2023-04-25T01:39:35.645Z,0.50
2023-04-25T01:42:02.692Z,0.40
2023-04-25T01:44:30.826Z,0.40
2023-04-25T01:46:57.590Z,0.40
2023-04-25T01:49:24.758Z,0.30
2023-04-25T01:51:51.561Z,0.30
2023-04-25T01:54:19.613Z,0.20
2023-04-25T01:56:51.641Z,0.40
2023-04-25T01:59:21.063Z,0.40
2023-04-25T02:02:06.798Z,0.40
2023-04-25T02:04:34.065Z,0.20
2023-04-25T02:07:01.917Z,0.40
2023-04-25T02:09:37.723Z,0.40
2023-04-25T02:12:06.614Z,0.40
2023-04-25T02:14:37.812Z,0.30
2023-04-25T02:17:11.249Z,0.20
2023-04-25T02:19:38.132Z,0.40
2023-04-25T02:22:04.831Z,0.20
2023-04-25T02:24:32.923Z,0.20
2023-04-25T02:26:59.689Z,0.50
2023-04-25T02:29:26.290Z,0.20
2023-04-25T02:31:53.006Z,0.20
2023-04-25T02:34:19.722Z,0.10
2023-04-25T02:36:46.308Z,0.40
2023-04-25T02:39:12.943Z,0.20
2023-04-25T02:41:39.576Z,0.20
2023-04-25T02:44:06.346Z,0.10
2023-04-25T02:51:32.259Z,0.40
2023-04-25T02:53:59.233Z,0.30
2023-04-25T02:56:27.227Z,0.30
2023-04-25T02:58:54.731Z,0.40
2023-04-25T03:01:21.754Z,0.30
2023-04-25T03:03:48.701Z,0.30
2023-04-25T03:06:16.820Z,1.20
2023-04-25T03:08:44.069Z,0.70
2023-04-25T03:11:11.654Z,0.50
2023-04-25T03:13:38.442Z,0.70
2023-04-25T03:16:05.945Z,0.70
2023-04-25T03:18:32.638Z,0.80
2023-04-25T03:20:59.485Z,0.60
2023-04-25T03:23:27.152Z,0.80
2023-04-25T03:25:53.841Z,0.60
2023-04-25T03:28:20.988Z,0.60
2023-04-25T03:30:48.109Z,0.70
2023-04-25T03:33:14.710Z,0.80
2023-04-25T03:35:41.453Z,0.70
2023-04-25T03:38:08.172Z,0.80
2023-04-25T03:40:38.664Z,0.80
2023-04-25T03:43:27.659Z,0.80
2023-04-25T03:45:58.315Z,1.00
2023-04-25T03:48:27.331Z,1.30
2023-04-25T03:50:55.102Z,0.60
2023-04-25T03:53:21.862Z,0.60
2023-04-25T03:56:07.583Z,0.50
2023-04-25T03:58:35.580Z,0.60
2023-04-25T04:01:04.492Z,0.30
2023-04-25T04:03:31.983Z,0.30
2023-04-25T04:05:58.778Z,0.60
2023-04-25T04:08:25.889Z,0.30
2023-04-25T04:10:52.721Z,0.20
2023-04-25T04:13:19.387Z,0.00
2023-04-25T04:15:46.099Z,0.30
2023-04-25T04:18:13.569Z,0.60
2023-04-25T04:20:40.314Z,0.10
2023-04-25T04:23:07.677Z,0.30
2023-04-25T04:25:35.351Z,0.20
2023-04-25T04:28:04.951Z,0.40
2023-04-25T04:30:53.508Z,0.40
2023-04-25T04:33:20.628Z,0.30
2023-04-25T04:35:54.528Z,0.30
2023-04-25T04:38:22.799Z,0.50
2023-04-25T04:40:51.450Z,0.30
2023-04-25T04:43:24.134Z,0.50
2023-04-25T04:46:08.850Z,0.40
2023-04-25T04:49:12.423Z,0.40
2023-04-25T04:52:00.964Z,0.60
2023-04-25T04:54:56.772Z,0.30
2023-04-25T04:57:56.558Z,0.20
2023-04-25T05:00:41.809Z,0.50
2023-04-25T05:03:28.941Z,0.60
2023-04-25T05:06:07.268Z,0.30
2023-04-25T05:08:56.165Z,0.40
2023-04-25T05:11:31.775Z,0.40
2023-04-25T05:14:24.897Z,0.60
2023-04-25T05:17:09.667Z,0.40
2023-04-25T05:19:53.935Z,1.10
2023-04-25T05:22:39.043Z,1.40
2023-04-25T05:25:25.971Z,1.20
2023-04-25T05:28:15.639Z,0.70
2023-04-25T05:30:53.775Z,1.30
2023-04-25T05:33:29.565Z,1.00
2023-04-25T05:35:56.142Z,1.00
2023-04-25T05:38:23.774Z,0.90
2023-04-25T05:41:09.234Z,0.50
2023-04-25T05:43:46.381Z,0.60
2023-04-25T05:46:26.631Z,0.60
2023-04-25T05:49:11.920Z,1.00
2023-04-25T05:51:53.236Z,0.80
2023-04-25T05:54:28.686Z,0.90
2023-04-25T05:56:58.192Z,1.00
2023-04-25T05:59:25.009Z,0.70
2023-04-25T06:01:52.796Z,0.70
2023-04-25T06:04:21.638Z,0.40
2023-04-25T06:06:48.473Z,0.60
2023-04-25T06:09:15.804Z,0.40
2023-04-25T06:11:42.466Z,1.10
2023-04-25T06:14:09.654Z,1.20
2023-04-25T06:16:37.692Z,1.10
2023-04-25T06:19:04.358Z,0.70
2023-04-25T06:21:32.580Z,0.70
2023-04-25T06:23:59.499Z,0.60
2023-04-25T06:26:26.276Z,0.10
2023-04-25T06:28:53.044Z,0.20
2023-04-25T06:31:19.825Z,0.30
2023-04-25T06:33:46.976Z,0.30
2023-04-25T06:36:13.596Z,0.40
2023-04-25T06:38:40.743Z,0.40
2023-04-25T06:41:07.506Z,0.30
2023-04-25T06:43:35.867Z,0.40
2023-04-25T06:46:06.814Z,0.60
2023-04-25T06:48:39.484Z,1.00
2023-04-25T06:51:06.274Z,0.50
2023-04-25T06:53:35.009Z,0.30
2023-04-25T06:56:04.241Z,0.30
2023-04-25T06:58:41.736Z,0.50
2023-04-25T07:01:22.351Z,0.40
2023-04-25T07:03:49.391Z,0.30
2023-04-25T07:06:17.980Z,0.30
2023-04-25T07:08:45.595Z,0.80
2023-04-25T07:11:12.502Z,0.40
2023-04-25T07:13:40.262Z,1.00
2023-04-25T07:16:07.284Z,0.50
2023-04-25T07:18:35.014Z,0.60
2023-04-25T07:21:02.154Z,0.40
2023-04-25T07:23:29.992Z,0.40
2023-04-25T07:25:58.785Z,0.70
2023-04-25T07:28:25.833Z,0.40
2023-04-25T07:30:52.509Z,0.50
2023-04-25T07:33:21.387Z,0.50
2023-04-25T07:35:48.322Z,0.50
2023-04-25T07:38:15.216Z,0.40
2023-04-25T07:40:41.863Z,0.60
2023-04-25T07:43:09.161Z,0.40
2023-04-25T07:45:48.086Z,0.60
2023-04-25T07:48:19.751Z,0.60
2023-04-25T07:50:46.726Z,0.30
2023-04-25T07:53:13.624Z,0.50
2023-04-25T07:55:45.752Z,0.60
2023-04-25T07:58:22.193Z,0.50
2023-04-25T08:00:51.036Z,0.40
2023-04-25T08:03:36.403Z,0.60
2023-04-25T08:06:08.104Z,0.60
2023-04-25T08:08:40.898Z,0.30
2023-04-25T08:11:08.440Z,0.40
2023-04-25T08:13:35.729Z,0.50
2023-04-25T08:16:02.520Z,0.60
2023-04-25T08:18:29.524Z,0.50
2023-04-25T08:20:56.196Z,0.40
2023-04-25T08:23:23.570Z,0.10
2023-04-25T08:26:02.156Z,0.40
2023-04-25T08:28:29.452Z,0.20
2023-04-25T08:30:57.558Z,0.70
2023-04-25T08:33:33.155Z,0.40
2023-04-25T08:36:31.565Z,0.30
2023-04-25T08:39:06.331Z,0.30
2023-04-25T08:41:36.762Z,0.50
2023-04-25T08:44:05.472Z,0.20
2023-04-25T08:46:33.353Z,0.40
2023-04-25T08:49:10.599Z,0.30
2023-04-25T08:51:48.336Z,0.30
2023-04-25T08:54:34.539Z,0.40
2023-04-25T08:57:05.116Z,0.20
2023-04-25T08:59:35.188Z,0.40
2023-04-25T09:02:02.915Z,0.30
2023-04-25T09:04:32.647Z,0.30
2023-04-25T09:06:59.873Z,0.20
2023-04-25T09:09:26.750Z,0.40
2023-04-25T09:11:56.453Z,0.20
2023-04-25T09:14:26.923Z,0.30
2023-04-25T09:17:06.313Z,0.20
2023-04-25T09:19:54.115Z,0.40
2023-04-25T09:22:27.795Z,0.30
2023-04-25T09:24:54.500Z,0.30
2023-04-25T09:27:24.103Z,0.50
2023-04-25T09:30:03.078Z,0.30
2023-04-25T09:32:46.421Z,0.40
2023-04-25T09:35:25.662Z,0.40
2023-04-25T09:37:52.880Z,0.50
2023-04-25T09:40:46.469Z,0.60
2023-04-25T09:43:24.289Z,0.30
2023-04-25T09:45:54.447Z,0.40
2023-04-25T09:48:23.007Z,0.40
2023-04-25T09:51:17.084Z,0.30
2023-04-25T09:53:53.015Z,0.40
2023-04-25T09:56:30.212Z,0.60
2023-04-25T09:58:57.611Z,0.60
2023-04-25T10:01:25.243Z,0.20
2023-04-25T10:04:05.733Z,0.40
2023-04-25T10:06:42.497Z,0.30
2023-04-25T10:09:09.269Z,0.30
2023-04-25T10:11:38.704Z,0.20
2023-04-25T10:14:06.419Z,0.30
2023-04-25T10:16:33.492Z,0.50
2023-04-25T10:19:01.059Z,0.50
2023-04-25T10:21:32.009Z,0.30
2023-04-25T10:23:59.225Z,0.40
2023-04-25T10:26:26.525Z,0.80
2023-04-25T10:28:58.926Z,0.50
2023-04-25T10:31:26.057Z,0.40
2023-04-25T10:33:53.338Z,0.60
2023-04-25T10:36:24.665Z,0.90
2023-04-25T10:38:52.308Z,0.90
2023-04-25T10:41:21.649Z,0.80
2023-04-25T10:43:50.229Z,2.40
2023-04-25T10:46:27.196Z,0.60
2023-04-25T10:48:59.198Z,0.60
2023-04-25T10:54:19.133Z,0.80
2023-04-25T10:56:45.809Z,0.60
2023-04-25T10:59:17.286Z,1.50
2023-04-25T11:01:46.475Z,2.10
2023-04-25T11:04:30.226Z,1.10
2023-04-25T11:07:07.772Z,0.40
2023-04-25T11:09:36.848Z,0.80
2023-04-25T11:12:03.916Z,0.90
2023-04-25T11:14:31.086Z,0.90
2023-04-25T11:17:00.355Z,0.50
2023-04-25T11:19:28.270Z,0.60
2023-04-25T11:21:59.167Z,0.50
2023-04-25T11:24:30.942Z,0.50
2023-04-25T11:29:30.504Z,0.30
2023-04-25T11:32:01.269Z,0.20
2023-04-25T11:34:31.793Z,0.40
2023-04-25T11:36:59.505Z,0.50
2023-04-25T11:39:27.181Z,0.50
2023-04-25T11:41:54.717Z,0.30
2023-04-25T11:44:22.464Z,0.20
2023-04-25T11:46:49.976Z,0.50
2023-04-25T11:49:16.898Z,0.60
2023-04-25T11:51:45.815Z,0.40
2023-04-25T11:54:13.256Z,0.70
2023-04-25T11:56:44.691Z,0.40
2023-04-25T11:59:12.655Z,0.60
2023-04-25T12:01:48.811Z,0.60
2023-04-25T12:04:26.501Z,0.70
2023-04-25T12:06:56.667Z,0.70
2023-04-25T12:09:32.010Z,0.80
2023-04-25T12:12:03.704Z,0.80
2023-04-25T12:14:35.802Z,0.70
2023-04-25T12:19:35.921Z,0.90
2023-04-25T12:22:04.242Z,0.90
2023-04-25T12:24:38.403Z,0.70
2023-04-25T12:27:09.248Z,0.70
2023-04-25T12:29:48.374Z,0.70
2023-04-25T12:32:17.811Z,0.80
2023-04-25T12:34:44.845Z,0.80
2023-04-25T12:37:12.478Z,0.60
2023-04-25T12:39:39.074Z,0.80
2023-04-25T12:42:08.609Z,1.20
2023-04-25T12:44:36.372Z,10.90
2023-04-25T12:47:04.316Z,5.50
2023-04-25T12:49:31.239Z,1.80
2023-04-25T12:51:58.097Z,1.00
2023-04-25T12:54:25.807Z,0.90
2023-04-25T12:56:52.617Z,0.70
2023-04-25T12:59:20.892Z,0.80
2023-04-25T13:01:47.981Z,0.90
2023-04-25T13:04:14.875Z,0.80
2023-04-25T13:06:41.581Z,1.20
2023-04-25T13:09:08.149Z,1.20
2023-04-25T13:11:34.899Z,1.10
2023-04-25T13:14:01.578Z,0.90
2023-04-25T13:16:28.434Z,0.90
2023-04-25T13:18:57.130Z,0.70
2023-04-25T13:21:24.529Z,0.70
2023-04-25T13:23:51.813Z,0.80
2023-04-25T13:26:18.867Z,1.00
2023-04-25T13:28:45.922Z,0.70
2023-04-25T13:31:12.571Z,0.80
2023-04-25T13:33:39.220Z,1.00
2023-04-25T13:36:06.676Z,0.90
2023-04-25T13:38:33.504Z,0.80
2023-04-25T13:41:00.413Z,1.60
2023-04-25T13:43:26.979Z,1.70
2023-04-25T13:45:53.770Z,1.20
2023-04-25T13:48:21.135Z,1.10
2023-04-25T13:50:47.979Z,1.30
2023-04-25T13:53:14.751Z,1.30
2023-04-25T13:55:41.496Z,1.50
2023-04-25T13:58:09.105Z,1.80
2023-04-25T14:00:40.711Z,1.60
2023-04-25T14:03:10.425Z,1.20
2023-04-25T14:05:40.984Z,2.70
2023-04-25T14:08:09.452Z,2.30
2023-04-25T14:10:36.962Z,2.00
2023-04-25T14:13:04.697Z,1.80
2023-04-25T14:15:33.101Z,1.00
2023-04-25T14:18:00.846Z,1.10
2023-04-25T14:20:27.944Z,1.00
2023-04-25T14:22:56.985Z,1.00
2023-04-25T14:25:24.495Z,1.10
2023-04-25T14:27:51.397Z,1.10
2023-04-25T14:30:20.207Z,1.40
2023-04-25T14:32:47.442Z,1.30
2023-04-25T14:35:14.305Z,1.60
2023-04-25T14:37:41.078Z,1.80
2023-04-25T14:40:14.017Z,2.10
2023-04-25T14:42:40.998Z,2.80
2023-04-25T14:45:09.763Z,1.20
2023-04-25T14:47:39.858Z,1.40
2023-04-25T14:50:08.140Z,1.10
2023-04-25T14:52:34.903Z,1.50
2023-04-25T14:55:06.090Z,1.60
2023-04-25T14:57:33.930Z,1.80
2023-04-25T15:00:01.891Z,1.40
2023-04-25T15:02:29.271Z,1.10
2023-04-25T15:04:57.082Z,1.30
2023-04-25T15:07:24.043Z,1.30
2023-04-25T15:09:50.780Z,0.80
2023-04-25T15:12:17.506Z,1.10
2023-04-25T15:14:46.525Z,1.30
2023-04-25T15:17:15.106Z,1.30
2023-04-25T15:19:41.739Z,1.10
2023-04-25T15:22:08.480Z,1.00
2023-04-25T15:24:35.747Z,1.00
2023-04-25T15:27:02.447Z,1.10
2023-04-25T15:29:29.914Z,1.30
2023-04-25T15:31:56.945Z,1.00
2023-04-25T15:34:23.647Z,1.10
2023-04-25T15:36:50.312Z,1.00
2023-04-25T15:39:17.764Z,1.10
2023-04-25T15:41:44.380Z,1.00
2023-04-25T15:44:11.334Z,1.40
2023-04-25T15:46:38.921Z,1.00
2023-04-25T15:49:06.076Z,1.40
2023-04-25T15:51:33.793Z,1.10
2023-04-25T15:54:02.610Z,1.00
2023-04-25T15:56:29.394Z,1.30
2023-04-25T15:58:56.007Z,1.00
2023-04-25T16:01:24.728Z,1.30
2023-04-25T16:03:53.307Z,1.00
2023-04-25T16:06:20.419Z,1.20
2023-04-25T16:08:47.028Z,1.10
2023-04-25T16:11:14.901Z,1.30
2023-04-25T16:13:41.837Z,1.10
2023-04-25T16:16:08.877Z,1.10
2023-04-25T16:18:35.818Z,1.20
2023-04-25T16:21:03.529Z,1.30
2023-04-25T16:23:30.208Z,1.30
2023-04-25T16:25:56.975Z,1.20
2023-04-25T16:28:24.150Z,1.40
2023-04-25T16:30:50.834Z,1.60
2023-04-25T16:33:17.597Z,1.20
2023-04-25T16:35:44.467Z,1.10
2023-04-25T16:38:11.237Z,1.20
2023-04-25T16:40:37.925Z,1.30
2023-04-25T16:43:04.564Z,1.80
2023-04-25T16:45:31.197Z,1.60
2023-04-25T16:47:57.816Z,1.40
2023-04-25T16:50:24.527Z,2.00
2023-04-25T16:52:51.317Z,1.40
2023-04-25T16:55:18.198Z,1.40
2023-04-25T16:57:44.840Z,1.20
2023-04-25T17:00:13.556Z,1.20
2023-04-25T17:02:40.426Z,1.20
2023-04-25T17:05:07.564Z,1.50
2023-04-25T17:07:34.262Z,1.70
2023-04-25T17:10:01.326Z,1.70
2023-04-25T17:12:31.211Z,1.50
2023-04-25T17:14:57.858Z,2.40
2023-04-25T17:17:26.152Z,1.70
2023-04-25T17:19:52.963Z,1.40
2023-04-25T17:22:19.642Z,2.20
2023-04-25T17:24:46.341Z,2.00
2023-04-25T17:27:13.063Z,1.80
2023-04-25T17:29:39.695Z,1.70
2023-04-25T17:32:06.804Z,1.60
2023-04-25T17:34:34.262Z,2.20
2023-04-25T17:37:00.921Z,1.80
2023-04-25T17:39:27.592Z,1.60
2023-04-25T17:41:54.334Z,2.10
2023-04-25T17:44:21.020Z,2.30
2023-04-25T17:46:47.661Z,2.90
2023-04-25T17:49:14.285Z,4.20
2023-04-25T17:51:40.964Z,2.90
2023-04-25T17:54:08.316Z,2.90
2023-04-25T17:56:38.595Z,3.00
2023-04-25T17:59:05.244Z,2.00
2023-04-25T18:01:32.647Z,1.80
2023-04-25T18:03:59.444Z,2.10
2023-04-25T18:06:28.296Z,1.80
2023-04-25T18:08:56.944Z,1.80
2023-04-25T18:11:24.679Z,1.70
2023-04-25T18:13:51.617Z,1.90
2023-04-25T18:16:18.587Z,1.90
2023-04-25T18:18:47.097Z,2.10
2023-04-25T18:21:13.723Z,2.30
2023-04-25T18:23:41.457Z,2.20
2023-04-25T18:26:08.233Z,1.90
2023-04-25T18:28:34.898Z,2.00
2023-04-25T18:31:01.630Z,1.90
2023-04-25T18:33:28.296Z,1.80
2023-04-25T18:35:59.420Z,1.70
2023-04-25T18:41:08.311Z,2.10
2023-04-25T18:43:44.593Z,2.90
2023-04-25T18:46:11.483Z,2.40
2023-04-25T18:48:38.229Z,2.20
2023-04-25T18:51:05.733Z,2.20
2023-04-25T18:53:32.721Z,2.60
2023-04-25T18:55:59.470Z,2.40
2023-04-25T18:58:26.446Z,2.10
2023-04-25T19:00:53.567Z,1.90
2023-04-25T19:03:21.886Z,2.00
2023-04-25T19:05:48.802Z,2.10
2023-04-25T19:08:15.500Z,2.10
2023-04-25T19:10:42.195Z,2.30
2023-04-25T19:13:09.148Z,2.10
2023-04-25T19:15:36.168Z,1.80
2023-04-25T19:18:02.917Z,1.80
2023-04-25T19:20:29.680Z,2.10
2023-04-25T19:22:56.945Z,2.00
2023-04-25T19:25:24.992Z,2.30
2023-04-25T19:27:52.170Z,2.40
2023-04-25T19:30:19.367Z,2.90
2023-04-25T19:32:46.236Z,2.40
2023-04-25T19:35:13.524Z,2.90
2023-04-25T19:37:45.967Z,2.40
2023-04-25T19:40:14.541Z,2.60
2023-04-25T19:42:41.288Z,3.40
2023-04-25T19:45:09.011Z,2.90
2023-04-25T19:47:38.539Z,2.60
2023-04-25T19:50:08.527Z,3.10
2023-04-25T19:52:36.248Z,3.00
2023-04-25T19:55:04.995Z,2.70
2023-04-25T19:57:37.706Z,2.40
2023-04-25T20:00:08.987Z,2.70
2023-04-25T20:02:45.342Z,2.20
2023-04-25T20:05:14.478Z,1.90
2023-04-25T20:07:41.798Z,1.80
2023-04-25T20:10:12.601Z,1.90
2023-04-25T20:12:44.093Z,1.60
2023-04-25T20:15:12.685Z,1.60
2023-04-25T20:17:41.831Z,1.90
2023-04-25T20:20:10.915Z,2.40
2023-04-25T20:22:39.897Z,2.10
2023-04-25T20:25:08.788Z,2.00
2023-04-25T20:27:38.155Z,2.30
2023-04-25T20:30:09.003Z,2.20
2023-04-25T20:32:36.752Z,2.30
2023-04-25T20:35:05.878Z,2.80
2023-04-25T20:37:33.301Z,2.40
2023-04-25T20:40:00.935Z,3.50
2023-04-25T20:42:27.861Z,2.40
2023-04-25T20:44:54.739Z,1.90
2023-04-25T20:47:21.984Z,1.50
2023-04-25T20:49:49.145Z,1.60
2023-04-25T20:52:17.325Z,1.80
2023-04-25T20:54:45.456Z,1.60
2023-04-25T20:57:12.241Z,1.30
2023-04-25T20:59:38.884Z,1.20
2023-04-25T21:02:05.532Z,1.40
2023-04-25T21:04:32.221Z,1.60
2023-04-25T21:07:00.772Z,1.50
2023-04-25T21:09:27.510Z,1.40
2023-04-25T21:11:54.218Z,1.40
2023-04-25T21:14:20.986Z,1.40
2023-04-25T21:16:47.641Z,1.50
2023-04-25T21:19:14.232Z,1.40
2023-04-25T21:21:40.848Z,1.30
2023-04-25T21:24:07.994Z,1.20
2023-04-25T21:26:34.564Z,1.20
2023-04-25T21:29:01.178Z,1.40
2023-04-25T21:31:28.279Z,1.20
2023-04-25T21:33:54.900Z,1.30
2023-04-25T21:36:22.796Z,1.20
2023-04-25T21:38:49.884Z,1.20
2023-04-25T21:41:17.259Z,1.20
2023-04-25T21:43:45.109Z,1.10
2023-04-25T21:46:23.137Z,1.00
2023-04-25T21:48:51.632Z,1.00
2023-04-25T21:51:18.773Z,0.90
2023-04-25T21:53:45.466Z,1.10
2023-04-25T21:56:12.512Z,1.00
2023-04-25T21:58:39.302Z,1.30
2023-04-25T22:01:05.998Z,1.10
2023-04-25T22:03:33.540Z,1.00
2023-04-25T22:06:00.287Z,1.20
2023-04-25T22:08:26.971Z,1.20
2023-04-25T22:10:55.292Z,0.90
2023-04-25T22:13:22.807Z,0.90
2023-04-25T22:15:49.593Z,0.90
2023-04-25T22:18:16.452Z,1.10
2023-04-25T22:20:44.441Z,0.80
2023-04-25T22:23:12.222Z,1.10
2023-04-25T22:25:38.945Z,1.20
2023-04-25T22:28:05.658Z,0.90
2023-04-25T22:30:32.863Z,1.00
2023-04-25T22:32:59.604Z,0.90
2023-04-25T22:35:26.394Z,0.90
2023-04-25T22:37:53.196Z,0.90
2023-04-25T22:40:20.003Z,0.80
2023-04-25T22:42:46.760Z,0.80
2023-04-25T22:45:13.692Z,0.90
2023-04-25T22:47:40.487Z,1.00
2023-04-25T22:50:12.824Z,1.00
2023-04-25T22:52:39.843Z,1.00
2023-04-25T22:55:06.859Z,0.80
2023-04-25T22:57:33.472Z,0.80
2023-04-25T23:00:00.114Z,1.00
2023-04-25T23:02:27.497Z,0.40
2023-04-25T23:04:55.029Z,0.80
2023-04-25T23:07:21.971Z,0.60
2023-04-25T23:09:49.391Z,0.60
2023-04-25T23:12:19.351Z,0.70
2023-04-25T23:14:52.983Z,0.40
2023-04-25T23:17:20.628Z,0.60
2023-04-25T23:19:48.453Z,0.40
2023-04-25T23:22:15.137Z,0.60
2023-04-25T23:24:42.103Z,0.40
2023-04-25T23:27:08.702Z,0.50
2023-04-25T23:29:35.527Z,0.40
2023-04-25T23:32:02.212Z,0.40
2023-04-25T23:34:32.701Z,0.40
2023-04-25T23:37:01.384Z,0.40
2023-04-25T23:39:28.464Z,0.40
2023-04-25T23:41:55.903Z,0.50
2023-04-25T23:44:22.767Z,0.40
2023-04-25T23:46:51.328Z,0.50
2023-04-25T23:49:17.948Z,0.40
2023-04-25T23:51:44.527Z,0.50
2023-04-25T23:54:11.244Z,0.50
2023-04-25T23:56:37.921Z,0.60
2023-04-25T23:59:05.006Z,0.40
